OIAI  Shahid Asyaee Airport

Add Bookmark

Iran

Status
Operational
Latitude Longitude
32° 0' 8" N 49° 16' 13" E
32.002399 49.270401
Local (DST + 5) UTC (GMT + 4)
Jul 30, 2014 09:27 Jul 30, 2014 04:57
Sunrise-Sunset Local UTC
Begin Civil Twilight 05:58 01:28
Sunrise 06:25 01:55
Sunset 08:12 15:42
End Civil Twilight 08:39 16:09

Current Weather

METAR Observed VFR
OIAI 300400Z 29002KT CAVOK 33/07 Q0997 Wed, Jul 30, 2014 @ 04:00 UTC
(57 Minutes ago)
Visual Flight Rules

Decoded METAR

Wind Visibility Clouds Conditions
290° at 2 knots (4 kph) 10 km or more
  • Clear skies
  • No significant weather
Temperatures Readings Precipitation
Current Temp 33°C (91°F)
Dewpoint 7°C (45°F)
Humidity 20%
Altimeter 29.44"Hg
Sea Level Pressure 997mb
Field Elevation 1220.47'
None Recorded

Additional weather within a 92.6km radius of OIAI

Map ICAO Location
OIAW 88.2km S (213°)

24 Hour Weather History

Loading
-

24 Hour Weather Graphs

Loading
-

CheckWX.com is intended as a tool to help pilots better visualize weather data. It is not intended as a substitute for an official weather briefing obtained from a Flight Service Station. CheckWX.com does not meet the FAA requirements for an official pre-flight weather briefing. Therefore, it's important that pilots still call and obtain an official FSS pre-flight weather briefing.